Time;durP1;ratioP1;P1;durP2;ratioP2;P2;SDS_P1;SDS_P2;PMS_P1;PMS_P2;Temp;Humidity;BMP_temperature;BMP_pressure;BME280_temperature;BME280_humidity;BME280_pressure;Samples;Min_cycle;Max_cycle;Signal;HPM_P1;HPM_P2
2020/12/06 00:02:20;;;;;;;31.87;28.60;;;;;;;;;;5071558;28;20597;-57
2020/12/06 00:04:46;;;;;;;34.03;30.35;;;;;;;;;;5072297;28;20595;-57
2020/12/06 00:07:11;;;;;;;31.63;28.23;;;;;;;;;;5066900;28;20207;-57
2020/12/06 00:09:36;;;;;;;33.10;29.70;;;;;;;;;;5069995;28;20206;-56
2020/12/06 00:12:01;;;;;;;32.65;29.25;;;;;;;;;;5068330;28;20567;-56
2020/12/06 00:14:26;;;;;;;33.73;30.20;;;;;;;;;;5067153;28;20166;-57
2020/12/06 00:16:51;;;;;;;33.78;29.80;;;;;;;;;;5066862;28;20220;-57
2020/12/06 00:19:17;;;;;;;33.77;29.90;;;;;;;;;;5068956;28;20170;-57
2020/12/06 00:21:43;;;;;;;34.30;30.50;;;;;;;;;;5069787;28;20552;-57
2020/12/06 00:24:08;;;;;;;35.07;31.37;;;;;;;;;;5066941;28;20208;-56
2020/12/06 00:26:33;;;;;;;33.63;30.03;;;;;;;;;;5067486;28;20597;-57
2020/12/06 00:28:58;;;;;;;32.17;28.00;;;;;;;;;;5068856;28;20630;-58
2020/12/06 00:31:24;;;;;;;32.63;28.92;;;;;;;;;;5068774;28;20187;-56
2020/12/06 00:33:49;;;;;;;33.90;29.07;;;;;;;;;;5065111;28;20195;-57
2020/12/06 00:36:15;;;;;;;32.50;29.03;;;;;;;;;;5066010;28;20245;-56
2020/12/06 00:38:40;;;;;;;31.77;28.43;;;;;;;;;;5067487;28;20175;-56
2020/12/06 00:41:05;;;;;;;31.73;28.33;;;;;;;;;;5068947;28;20199;-56
2020/12/06 00:43:30;;;;;;;29.17;26.10;;;;;;;;;;5069174;28;20879;-56
2020/12/06 00:45:55;;;;;;;30.83;27.10;;;;;;;;;;5068552;28;20796;-55
2020/12/06 00:48:20;;;;;;;29.90;26.90;;;;;;;;;;5059458;28;20178;-56
2020/12/06 00:50:46;;;;;;;30.05;26.95;;;;;;;;;;5069099;28;20175;-56
2020/12/06 00:53:11;;;;;;;30.43;27.13;;;;;;;;;;5068762;28;20220;-57
2020/12/06 00:55:36;;;;;;;32.10;27.05;;;;;;;;;;5069159;28;20181;-56
2020/12/06 00:58:01;;;;;;;29.60;26.40;;;;;;;;;;5064265;28;20269;-56
2020/12/06 01:00:27;;;;;;;31.93;28.53;;;;;;;;;;5065282;28;20188;-56
2020/12/06 01:02:52;;;;;;;30.30;27.20;;;;;;;;;;5068624;28;20203;-56
2020/12/06 01:05:17;;;;;;;32.13;28.08;;;;;;;;;;5068361;28;20164;-57
2020/12/06 01:07:42;;;;;;;32.83;29.35;;;;;;;;;;5066937;28;20583;-56
2020/12/06 01:10:08;;;;;;;30.47;27.27;;;;;;;;;;5068963;28;20167;-56
2020/12/06 01:12:34;;;;;;;30.00;26.83;;;;;;;;;;5065527;28;20175;-57
2020/12/06 01:14:59;;;;;;;32.77;29.27;;;;;;;;;;5068309;28;20602;-56
2020/12/06 01:17:25;;;;;;;33.57;28.43;;;;;;;;;;5064740;28;20544;-57
2020/12/06 01:19:50;;;;;;;32.40;27.20;;;;;;;;;;5071800;28;20168;-56
2020/12/06 01:22:15;;;;;;;33.55;30.02;;;;;;;;;;5072434;28;20625;-56
2020/12/06 01:24:40;;;;;;;29.48;26.17;;;;;;;;;;5072032;28;20198;-57
2020/12/06 01:27:05;;;;;;;32.10;28.70;;;;;;;;;;5068025;28;20186;-56
2020/12/06 01:29:30;;;;;;;30.23;27.00;;;;;;;;;;5072328;28;20622;-58
2020/12/06 01:31:55;;;;;;;32.50;27.65;;;;;;;;;;5072143;28;20182;-57
2020/12/06 01:34:21;;;;;;;30.25;27.15;;;;;;;;;;5072090;28;20187;-57
2020/12/06 01:36:49;;;;;;;31.07;27.77;;;;;;;;;;5068148;28;20632;-57
2020/12/06 01:39:14;;;;;;;32.20;28.70;;;;;;;;;;5069833;28;20845;-56
2020/12/06 01:41:39;;;;;;;31.15;27.73;;;;;;;;;;5072513;28;21466;-56
2020/12/06 01:44:05;;;;;;;31.83;28.42;;;;;;;;;;5071877;28;20661;-56
2020/12/06 01:46:31;;;;;;;31.20;27.90;;;;;;;;;;5070047;28;20190;-57
2020/12/06 01:48:56;;;;;;;31.40;28.17;;;;;;;;;;5066157;28;20233;-56
2020/12/06 01:51:22;;;;;;;28.90;25.87;;;;;;;;;;5070353;28;21138;-57
2020/12/06 01:53:48;;;;;;;29.20;26.27;;;;;;;;;;5071900;28;20172;-56
2020/12/06 01:56:13;;;;;;;29.13;26.10;;;;;;;;;;5071245;28;20592;-57
2020/12/06 01:58:39;;;;;;;26.97;24.07;;;;;;;;;;5067860;28;20190;-57
2020/12/06 02:01:04;;;;;;;28.23;25.23;;;;;;;;;;5074460;28;20199;-57
2020/12/06 02:03:30;;;;;;;27.00;24.10;;;;;;;;;;5073176;28;20581;-57
2020/12/06 02:05:56;;;;;;;27.30;24.50;;;;;;;;;;5070666;28;20905;-56
2020/12/06 02:08:21;;;;;;;27.23;23.87;;;;;;;;;;5068011;28;20182;-57
2020/12/06 02:10:46;;;;;;;27.93;25.00;;;;;;;;;;5071252;28;20601;-56
2020/12/06 02:13:11;;;;;;;26.83;23.97;;;;;;;;;;5069453;28;20209;-57
2020/12/06 02:15:37;;;;;;;28.83;25.95;;;;;;;;;;5070454;28;20228;-57
2020/12/06 02:18:02;;;;;;;27.60;24.60;;;;;;;;;;5067239;28;20563;-57
2020/12/06 02:20:27;;;;;;;31.97;28.57;;;;;;;;;;5071076;28;20210;-57
2020/12/06 02:22:52;;;;;;;33.13;29.63;;;;;;;;;;5070679;28;20179;-57
2020/12/06 02:25:17;;;;;;;39.20;32.47;;;;;;;;;;5070391;28;20626;-57
2020/12/06 02:27:42;;;;;;;35.20;31.50;;;;;;;;;;5068888;28;20225;-56
2020/12/06 02:30:08;;;;;;;34.83;30.83;;;;;;;;;;5071018;28;20171;-57
2020/12/06 02:32:33;;;;;;;35.20;31.60;;;;;;;;;;5071182;28;20570;-57
2020/12/06 02:34:58;;;;;;;36.35;31.52;;;;;;;;;;5070620;28;20199;-57
2020/12/06 02:37:24;;;;;;;35.70;31.85;;;;;;;;;;5067689;28;20170;-57
2020/12/06 02:39:50;;;;;;;35.03;30.17;;;;;;;;;;5070818;28;20625;-57
2020/12/06 02:42:15;;;;;;;34.80;31.10;;;;;;;;;;5070031;28;21018;-57
2020/12/06 02:44:40;;;;;;;32.35;29.05;;;;;;;;;;5070873;28;21208;-57
2020/12/06 02:47:05;;;;;;;32.67;29.05;;;;;;;;;;5068250;28;20201;-57
2020/12/06 02:49:30;;;;;;;33.27;29.67;;;;;;;;;;5070270;28;20171;-57
2020/12/06 02:51:55;;;;;;;33.25;29.65;;;;;;;;;;5069812;28;20175;-57
2020/12/06 02:54:20;;;;;;;35.70;31.90;;;;;;;;;;5070580;28;20204;-57
2020/12/06 02:56:46;;;;;;;35.37;30.63;;;;;;;;;;5069587;28;20227;-56
2020/12/06 02:59:11;;;;;;;34.05;30.00;;;;;;;;;;5068099;28;20184;-57
2020/12/06 03:01:36;;;;;;;32.97;29.57;;;;;;;;;;5070262;28;20211;-56
2020/12/06 03:04:01;;;;;;;34.42;30.52;;;;;;;;;;5070210;28;20527;-57
2020/12/06 03:06:26;;;;;;;29.60;26.50;;;;;;;;;;5070522;28;20198;-56
2020/12/06 03:08:51;;;;;;;27.83;24.83;;;;;;;;;;5068654;28;20194;-57
2020/12/06 03:11:17;;;;;;;26.13;23.33;;;;;;;;;;5070419;28;20289;-56
2020/12/06 03:13:42;;;;;;;24.60;21.77;;;;;;;;;;5069928;28;20709;-56
2020/12/06 03:16:07;;;;;;;26.30;23.58;;;;;;;;;;5068906;28;20272;-56
2020/12/06 03:18:32;;;;;;;24.10;21.60;;;;;;;;;;5070464;28;20187;-57
2020/12/06 03:20:58;;;;;;;23.23;20.90;;;;;;;;;;5070183;28;20207;-56
2020/12/06 03:23:23;;;;;;;22.40;20.30;;;;;;;;;;5069807;28;20660;-58
2020/12/06 03:25:48;;;;;;;23.50;21.10;;;;;;;;;;5070057;28;20205;-57
2020/12/06 03:28:14;;;;;;;22.77;20.47;;;;;;;;;;5067805;28;20187;-57
2020/12/06 03:30:39;;;;;;;23.90;21.60;;;;;;;;;;5066720;28;20180;-57
2020/12/06 03:33:04;;;;;;;21.20;19.20;;;;;;;;;;5069828;28;20625;-57
2020/12/06 03:35:29;;;;;;;22.38;20.27;;;;;;;;;;5069965;28;20173;-57
2020/12/06 03:37:54;;;;;;;21.08;19.17;;;;;;;;;;5063645;28;20175;-57
2020/12/06 03:40:19;;;;;;;22.67;20.27;;;;;;;;;;5069269;28;20620;-57
2020/12/06 03:42:44;;;;;;;21.17;19.10;;;;;;;;;;5069420;28;20176;-57
2020/12/06 03:45:10;;;;;;;21.30;19.20;;;;;;;;;;5069510;28;20182;-57
2020/12/06 03:47:35;;;;;;;21.07;19.10;;;;;;;;;;5063326;28;20676;-56
2020/12/06 03:50:00;;;;;;;21.93;19.70;;;;;;;;;;5069494;28;20199;-57
2020/12/06 03:52:25;;;;;;;21.58;18.80;;;;;;;;;;5069452;28;20167;-57
2020/12/06 03:54:50;;;;;;;20.98;18.98;;;;;;;;;;5069990;28;20211;-57
2020/12/06 03:57:15;;;;;;;22.10;19.87;;;;;;;;;;5069338;28;20249;-57
2020/12/06 03:59:40;;;;;;;21.47;19.37;;;;;;;;;;5065029;28;20579;-57
2020/12/06 04:02:06;;;;;;;23.23;20.93;;;;;;;;;;5065535;28;20212;-57
2020/12/06 04:04:31;;;;;;;23.00;20.70;;;;;;;;;;5069714;28;20177;-57
2020/12/06 04:06:56;;;;;;;25.10;19.80;;;;;;;;;;5068841;28;20171;-57
2020/12/06 04:09:21;;;;;;;23.10;20.77;;;;;;;;;;5065510;28;20171;-57
2020/12/06 04:11:46;;;;;;;22.00;19.90;;;;;;;;;;5069629;28;20834;-55
2020/12/06 04:14:11;;;;;;;21.90;19.80;;;;;;;;;;5068467;28;20180;-56
2020/12/06 04:16:36;;;;;;;21.15;18.95;;;;;;;;;;5069217;28;20226;-56
2020/12/06 04:19:02;;;;;;;21.33;19.05;;;;;;;;;;5068061;28;20548;-57
2020/12/06 04:21:27;;;;;;;21.07;19.07;;;;;;;;;;5067174;28;20249;-57
2020/12/06 04:23:52;;;;;;;20.20;18.00;;;;;;;;;;5069233;28;20634;-57
2020/12/06 04:26:17;;;;;;;21.27;19.33;;;;;;;;;;5064224;28;20200;-56
2020/12/06 04:28:42;;;;;;;20.77;18.83;;;;;;;;;;5067392;28;20201;-57
2020/12/06 04:31:07;;;;;;;21.05;19.05;;;;;;;;;;5069429;28;20178;-56
2020/12/06 04:33:33;;;;;;;20.92;19.00;;;;;;;;;;5069121;28;20205;-56
2020/12/06 04:35:58;;;;;;;20.97;19.00;;;;;;;;;;5069325;28;20308;-56
2020/12/06 04:38:23;;;;;;;20.63;18.73;;;;;;;;;;5064978;28;20297;-57
2020/12/06 04:40:48;;;;;;;21.23;19.23;;;;;;;;;;5062962;28;20212;-58
2020/12/06 04:43:14;;;;;;;22.20;19.80;;;;;;;;;;5068917;28;20180;-56
2020/12/06 04:45:40;;;;;;;22.17;20.07;;;;;;;;;;5068893;28;20174;-56
2020/12/06 04:48:06;;;;;;;21.77;19.67;;;;;;;;;;5066711;28;21418;-56
2020/12/06 04:50:32;;;;;;;22.57;20.47;;;;;;;;;;5069656;28;20181;-56
2020/12/06 04:52:58;;;;;;;24.43;22.00;;;;;;;;;;5069852;28;20177;-56
2020/12/06 04:55:27;;;;;;;21.23;19.23;;;;;;;;;;5072954;28;20592;-56
2020/12/06 04:57:54;;;;;;;23.73;21.37;;;;;;;;;;5072198;28;20724;-56
2020/12/06 05:00:19;;;;;;;24.77;22.20;;;;;;;;;;5070775;28;20694;-56
2020/12/06 05:02:45;;;;;;;23.40;21.10;;;;;;;;;;5070718;28;20999;-56
2020/12/06 05:05:13;;;;;;;23.40;21.10;;;;;;;;;;5072599;28;20232;-56
2020/12/06 05:07:38;;;;;;;22.73;20.47;;;;;;;;;;5071603;28;20679;-56
2020/12/06 05:10:04;;;;;;;24.40;21.80;;;;;;;;;;5068981;28;20698;-56
2020/12/06 05:12:29;;;;;;;23.40;20.97;;;;;;;;;;5073106;28;20171;-56
2020/12/06 05:14:54;;;;;;;23.37;21.07;;;;;;;;;;5073048;28;20666;-56
2020/12/06 05:17:19;;;;;;;23.77;21.48;;;;;;;;;;5068972;28;20175;-57
2020/12/06 05:19:45;;;;;;;23.97;21.57;;;;;;;;;;5068551;28;20171;-57
2020/12/06 05:22:10;;;;;;;23.03;20.83;;;;;;;;;;5070136;28;20199;-58
2020/12/06 05:24:36;;;;;;;23.30;20.90;;;;;;;;;;5070941;28;20609;-58
2020/12/06 05:27:01;;;;;;;23.97;21.67;;;;;;;;;;5067175;28;20232;-57
2020/12/06 05:29:27;;;;;;;23.25;20.85;;;;;;;;;;5066606;28;20167;-57
2020/12/06 05:31:54;;;;;;;24.93;22.37;;;;;;;;;;5071382;28;20179;-57
2020/12/06 05:34:19;;;;;;;25.13;22.63;;;;;;;;;;5071559;28;20625;-57
2020/12/06 05:36:44;;;;;;;24.63;22.03;;;;;;;;;;5071563;28;20632;-57
2020/12/06 05:39:10;;;;;;;22.63;20.30;;;;;;;;;;5067943;28;20174;-57
2020/12/06 05:41:35;;;;;;;24.80;22.50;;;;;;;;;;5069646;28;20192;-57
2020/12/06 05:44:05;;;;;;;23.33;20.93;;;;;;;;;;5071655;28;20200;-57
2020/12/06 05:46:31;;;;;;;24.20;21.70;;;;;;;;;;5071997;28;20168;-58
2020/12/06 05:48:57;;;;;;;23.53;21.30;;;;;;;;;;5069583;28;21089;-58
2020/12/06 05:51:22;;;;;;;23.07;20.70;;;;;;;;;;5071990;28;21154;-57
2020/12/06 05:53:48;;;;;;;22.05;19.95;;;;;;;;;;5068833;28;20261;-58
2020/12/06 05:56:15;;;;;;;24.73;22.43;;;;;;;;;;5071710;28;20177;-59
2020/12/06 05:58:41;;;;;;;21.73;19.63;;;;;;;;;;5069879;28;20621;-59
2020/12/06 06:01:07;;;;;;;23.20;20.80;;;;;;;;;;5071519;28;21228;-59
2020/12/06 06:03:34;;;;;;;24.47;22.17;;;;;;;;;;5071651;28;20609;-59
2020/12/06 06:06:01;;;;;;;24.47;22.00;;;;;;;;;;5065224;28;20171;-59
2020/12/06 06:08:26;;;;;;;24.50;22.10;;;;;;;;;;5069503;28;20601;-59
2020/12/06 06:11:12;;;;;;;24.37;22.00;;;;;;;;;;5067810;28;20606;-60
2020/12/06 06:13:42;;;;;;;24.00;21.47;;;;;;;;;;5049599;28;20186;-59
2020/12/06 06:16:07;;;;;;;23.23;20.97;;;;;;;;;;5069478;28;20656;-59
2020/12/06 06:18:33;;;;;;;24.17;21.67;;;;;;;;;;5068996;28;20597;-59
2020/12/06 06:20:59;;;;;;;23.70;21.40;;;;;;;;;;5071351;28;20571;-59
2020/12/06 06:23:24;;;;;;;22.10;20.00;;;;;;;;;;5071143;28;20954;-57
2020/12/06 06:25:49;;;;;;;23.90;21.40;;;;;;;;;;5071402;28;20183;-58
2020/12/06 06:28:15;;;;;;;23.70;21.20;;;;;;;;;;5072321;28;20171;-58
2020/12/06 06:30:42;;;;;;;22.97;20.67;;;;;;;;;;5069585;28;20180;-58
2020/12/06 06:33:13;;;;;;;23.23;20.90;;;;;;;;;;5071307;28;20679;-58
2020/12/06 06:35:46;;;;;;;23.50;21.30;;;;;;;;;;5063449;28;20605;-57
2020/12/06 06:38:11;;;;;;;22.87;20.73;;;;;;;;;;5067357;28;20616;-57
2020/12/06 06:40:37;;;;;;;23.27;20.87;;;;;;;;;;5066622;28;21206;-58
2020/12/06 06:43:05;;;;;;;22.80;20.45;;;;;;;;;;5070751;28;20632;-57
2020/12/06 06:45:41;;;;;;;23.17;20.87;;;;;;;;;;5071035;28;20178;-58
2020/12/06 06:48:07;;;;;;;22.83;20.63;;;;;;;;;;5070418;28;20601;-57
2020/12/06 06:50:32;;;;;;;23.73;21.50;;;;;;;;;;5067766;28;20608;-57
2020/12/06 06:52:57;;;;;;;24.30;21.80;;;;;;;;;;5069038;28;20553;-57
2020/12/06 06:55:22;;;;;;;22.00;19.90;;;;;;;;;;5074663;28;20227;-57
2020/12/06 06:57:49;;;;;;;26.83;22.67;;;;;;;;;;5069155;28;20562;-58
2020/12/06 07:00:14;;;;;;;24.60;22.20;;;;;;;;;;5062020;28;20264;-57
2020/12/06 07:02:40;;;;;;;24.02;21.40;;;;;;;;;;5065433;28;21226;-57
2020/12/06 07:05:11;;;;;;;22.83;20.53;;;;;;;;;;5068947;28;20201;-57
2020/12/06 07:07:37;;;;;;;23.63;21.17;;;;;;;;;;5070518;28;20688;-57
2020/12/06 07:10:06;;;;;;;22.07;19.97;;;;;;;;;;5067831;28;21232;-57
2020/12/06 07:12:38;;;;;;;23.47;21.10;;;;;;;;;;5070380;28;20172;-57
2020/12/06 07:15:07;;;;;;;23.40;21.07;;;;;;;;;;5064721;28;20658;-57
2020/12/06 07:17:32;;;;;;;23.40;20.93;;;;;;;;;;5068758;28;20948;-57
2020/12/06 07:19:58;;;;;;;22.20;20.00;;;;;;;;;;5067661;28;20582;-58
2020/12/06 07:22:23;;;;;;;20.27;18.20;;;;;;;;;;5069052;28;20328;-57
2020/12/06 07:24:49;;;;;;;21.50;19.30;;;;;;;;;;5069038;28;20189;-57
2020/12/06 07:27:15;;;;;;;22.90;20.70;;;;;;;;;;5067921;28;20746;-58
2020/12/06 07:29:40;;;;;;;22.60;20.40;;;;;;;;;;5067060;28;20671;-57
2020/12/06 07:32:06;;;;;;;26.67;23.90;;;;;;;;;;5070602;28;20183;-57
2020/12/06 07:34:31;;;;;;;24.43;21.97;;;;;;;;;;5068377;28;20176;-57
2020/12/06 07:36:56;;;;;;;23.88;21.27;;;;;;;;;;5068961;28;20198;-57
2020/12/06 07:39:21;;;;;;;22.77;20.58;;;;;;;;;;5067714;28;20190;-57
2020/12/06 07:41:50;;;;;;;22.63;20.23;;;;;;;;;;5068639;28;20198;-58
2020/12/06 07:44:15;;;;;;;22.20;19.97;;;;;;;;;;5067586;28;20319;-57
2020/12/06 07:46:41;;;;;;;22.20;20.00;;;;;;;;;;5065776;28;20717;-58
2020/12/06 07:49:06;;;;;;;22.27;20.20;;;;;;;;;;5067240;28;20179;-57
2020/12/06 07:51:31;;;;;;;20.73;18.73;;;;;;;;;;5068128;28;20183;-58
2020/12/06 07:53:57;;;;;;;21.55;19.45;;;;;;;;;;5065812;28;20229;-58
2020/12/06 07:56:23;;;;;;;22.17;20.10;;;;;;;;;;5058622;28;20578;-59
2020/12/06 07:59:00;;;;;;;21.83;19.73;;;;;;;;;;5066287;28;20181;-59
2020/12/06 08:01:29;;;;;;;21.37;19.27;;;;;;;;;;5066573;28;21241;-58
2020/12/06 08:03:55;;;;;;;21.37;19.37;;;;;;;;;;5063522;28;20622;-58
2020/12/06 08:06:21;;;;;;;22.27;20.10;;;;;;;;;;5065349;28;21001;-58
2020/12/06 08:08:49;;;;;;;20.87;18.70;;;;;;;;;;5069186;28;20654;-59
2020/12/06 08:11:15;;;;;;;22.00;19.70;;;;;;;;;;5066439;28;20661;-58
2020/12/06 08:13:40;;;;;;;21.97;19.90;;;;;;;;;;5067743;28;20655;-59
2020/12/06 08:16:06;;;;;;;23.40;20.90;;;;;;;;;;5066343;28;20643;-59
2020/12/06 08:18:31;;;;;;;22.07;19.97;;;;;;;;;;5067850;28;20177;-59
2020/12/06 08:20:56;;;;;;;21.95;19.75;;;;;;;;;;5065584;28;20234;-59
2020/12/06 08:23:36;;;;;;;21.88;19.45;;;;;;;;;;5066236;28;20242;-59
2020/12/06 08:26:01;;;;;;;21.77;19.77;;;;;;;;;;5066506;28;20176;-59
2020/12/06 08:28:26;;;;;;;20.70;18.80;;;;;;;;;;5072356;28;20631;-59
2020/12/06 08:30:52;;;;;;;22.77;20.60;;;;;;;;;;5071592;28;20203;-59
2020/12/06 08:33:24;;;;;;;23.00;20.60;;;;;;;;;;5072664;28;20196;-59
2020/12/06 08:35:53;;;;;;;20.80;18.80;;;;;;;;;;5072623;28;20180;-59
2020/12/06 08:38:18;;;;;;;22.10;19.90;;;;;;;;;;5072596;28;20604;-59
2020/12/06 08:40:59;;;;;;;22.63;20.50;;;;;;;;;;5067019;28;20733;-59
2020/12/06 08:43:38;;;;;;;22.63;20.47;;;;;;;;;;5069222;28;20177;-59
2020/12/06 08:46:04;;;;;;;23.10;20.90;;;;;;;;;;5066073;28;21220;-58
2020/12/06 08:48:29;;;;;;;23.03;20.83;;;;;;;;;;5068877;28;20694;-59
2020/12/06 08:50:54;;;;;;;22.43;20.33;;;;;;;;;;5071252;28;20177;-59
2020/12/06 08:53:19;;;;;;;21.45;19.30;;;;;;;;;;5072791;28;20179;-59
2020/12/06 08:55:45;;;;;;;20.85;18.92;;;;;;;;;;5071818;28;20188;-59
2020/12/06 08:58:27;;;;;;;21.35;19.30;;;;;;;;;;5072778;28;20638;-59
2020/12/06 09:00:52;;;;;;;21.50;19.47;;;;;;;;;;5070826;28;20562;-59
2020/12/06 09:03:17;;;;;;;20.92;19.05;;;;;;;;;;5072615;28;20653;-59
2020/12/06 09:05:45;;;;;;;22.35;20.05;;;;;;;;;;5071969;28;20510;-59
2020/12/06 09:08:10;;;;;;;21.90;19.67;;;;;;;;;;5072727;28;20172;-59
2020/12/06 09:10:35;;;;;;;21.17;19.17;;;;;;;;;;5070532;28;22298;-59
2020/12/06 09:13:00;;;;;;;19.70;17.80;;;;;;;;;;5072692;28;20171;-59
2020/12/06 09:15:25;;;;;;;21.77;19.52;;;;;;;;;;5072117;28;20228;-59
2020/12/06 09:17:50;;;;;;;21.05;18.88;;;;;;;;;;5072249;28;20306;-59
2020/12/06 09:20:15;;;;;;;21.42;19.27;;;;;;;;;;5070584;28;20181;-59
2020/12/06 09:22:41;;;;;;;20.90;18.80;;;;;;;;;;5072346;28;20869;-59
2020/12/06 09:25:06;;;;;;;21.17;18.88;;;;;;;;;;5072290;28;20175;-58
2020/12/06 09:27:31;;;;;;;19.50;17.57;;;;;;;;;;5072230;28;20177;-59
2020/12/06 09:29:56;;;;;;;21.20;19.13;;;;;;;;;;5068379;28;20176;-59
2020/12/06 09:32:21;;;;;;;20.67;18.85;;;;;;;;;;5069650;28;20722;-59
2020/12/06 09:34:46;;;;;;;18.70;16.80;;;;;;;;;;5071596;28;20181;-59
2020/12/06 09:37:11;;;;;;;20.42;18.30;;;;;;;;;;5072213;28;20185;-59
2020/12/06 09:39:37;;;;;;;21.08;18.92;;;;;;;;;;5068752;28;20666;-59
2020/12/06 09:42:02;;;;;;;19.45;17.48;;;;;;;;;;5063479;28;20206;-59
2020/12/06 09:44:27;;;;;;;20.73;18.13;;;;;;;;;;5071932;28;20193;-59
2020/12/06 09:46:52;;;;;;;19.83;17.90;;;;;;;;;;5071968;28;20177;-59
2020/12/06 09:49:17;;;;;;;19.90;17.97;;;;;;;;;;5071690;28;20177;-59
2020/12/06 09:51:42;;;;;;;19.73;17.90;;;;;;;;;;5063574;28;20568;-59
2020/12/06 09:54:08;;;;;;;19.27;17.37;;;;;;;;;;5070144;28;20173;-59
2020/12/06 09:56:33;;;;;;;18.87;16.97;;;;;;;;;;5071686;28;20387;-59
2020/12/06 09:58:58;;;;;;;18.55;16.70;;;;;;;;;;5071613;28;20176;-58
2020/12/06 10:01:26;;;;;;;17.30;15.70;;;;;;;;;;5068781;28;20567;-60
2020/12/06 10:03:51;;;;;;;18.93;17.13;;;;;;;;;;5071464;28;20173;-59
2020/12/06 10:06:26;;;;;;;17.63;16.13;;;;;;;;;;5071540;28;20607;-59
2020/12/06 10:08:51;;;;;;;19.20;17.40;;;;;;;;;;5070665;28;20164;-59
2020/12/06 10:11:17;;;;;;;18.07;16.47;;;;;;;;;;5069442;28;21212;-59
2020/12/06 10:13:42;;;;;;;17.43;15.83;;;;;;;;;;5070940;28;20557;-59
2020/12/06 10:16:07;;;;;;;18.20;16.70;;;;;;;;;;5070845;28;20239;-57
2020/12/06 10:18:32;;;;;;;18.43;16.63;;;;;;;;;;5070959;28;20173;-58
2020/12/06 10:20:57;;;;;;;17.15;15.55;;;;;;;;;;5067134;28;20274;-57
2020/12/06 10:23:22;;;;;;;16.33;14.90;;;;;;;;;;5070731;28;20183;-57
2020/12/06 10:25:48;;;;;;;16.25;14.95;;;;;;;;;;5070729;28;20191;-58
2020/12/06 10:28:13;;;;;;;16.77;15.13;;;;;;;;;;5070847;28;20570;-57
2020/12/06 10:30:38;;;;;;;16.65;15.07;;;;;;;;;;5066996;28;20227;-58
2020/12/06 10:33:03;;;;;;;16.08;14.55;;;;;;;;;;5070403;28;20228;-58
2020/12/06 10:35:28;;;;;;;17.90;16.17;;;;;;;;;;5070485;28;20246;-58
2020/12/06 10:37:53;;;;;;;15.73;14.23;;;;;;;;;;5070322;28;20188;-58
2020/12/06 10:40:19;;;;;;;16.17;14.77;;;;;;;;;;5068055;28;20540;-58
2020/12/06 10:42:45;;;;;;;17.53;15.83;;;;;;;;;;5070606;28;20180;-58
2020/12/06 10:45:10;;;;;;;16.87;15.27;;;;;;;;;;5070385;28;20591;-58
2020/12/06 10:47:35;;;;;;;16.52;14.85;;;;;;;;;;5070574;28;20740;-58
2020/12/06 10:50:00;;;;;;;16.10;14.40;;;;;;;;;;5063726;28;20573;-58
2020/12/06 10:52:25;;;;;;;16.50;14.90;;;;;;;;;;5070057;28;20172;-58
2020/12/06 10:54:51;;;;;;;16.70;15.15;;;;;;;;;;5070099;28;20171;-58
2020/12/06 10:57:17;;;;;;;15.63;14.13;;;;;;;;;;5070054;28;20199;-58
2020/12/06 10:59:42;;;;;;;16.23;14.73;;;;;;;;;;5070006;28;21158;-58
2020/12/06 11:02:07;;;;;;;15.90;14.50;;;;;;;;;;5066783;28;20203;-58
2020/12/06 11:04:32;;;;;;;16.20;14.80;;;;;;;;;;5070205;28;20221;-58
2020/12/06 11:06:58;;;;;;;16.73;15.13;;;;;;;;;;5069785;28;20179;-58
2020/12/06 11:09:23;;;;;;;15.87;14.37;;;;;;;;;;5069983;28;20592;-58
2020/12/06 11:11:49;;;;;;;15.70;14.30;;;;;;;;;;5068360;28;20201;-58
2020/12/06 11:14:14;;;;;;;16.27;14.80;;;;;;;;;;5068431;28;20191;-58
2020/12/06 11:16:39;;;;;;;16.48;14.68;;;;;;;;;;5069819;28;21046;-58
2020/12/06 11:19:04;;;;;;;15.17;13.67;;;;;;;;;;5069677;28;20179;-58
2020/12/06 11:21:29;;;;;;;15.18;13.82;;;;;;;;;;5066977;28;20211;-58
2020/12/06 11:23:55;;;;;;;15.68;14.27;;;;;;;;;;5069460;28;20183;-58
2020/12/06 11:26:20;;;;;;;16.60;15.10;;;;;;;;;;5069831;28;20176;-58
2020/12/06 11:28:46;;;;;;;16.00;14.40;;;;;;;;;;5070006;28;20171;-58
2020/12/06 11:31:12;;;;;;;16.50;15.00;;;;;;;;;;5067024;28;20295;-59
2020/12/06 11:33:37;;;;;;;15.80;14.30;;;;;;;;;;5069898;28;20195;-58
2020/12/06 11:36:03;;;;;;;15.37;13.97;;;;;;;;;;5069782;28;20941;-58
2020/12/06 11:38:28;;;;;;;15.17;13.83;;;;;;;;;;5069796;28;20179;-58
2020/12/06 11:40:53;;;;;;;16.57;14.97;;;;;;;;;;5066509;28;20659;-59
2020/12/06 11:43:18;;;;;;;16.73;15.13;;;;;;;;;;5069698;28;20179;-58
2020/12/06 11:45:43;;;;;;;16.95;15.43;;;;;;;;;;5069373;28;20817;-58
2020/12/06 11:48:08;;;;;;;15.77;14.27;;;;;;;;;;5069491;28;20167;-58
2020/12/06 11:50:34;;;;;;;15.80;14.40;;;;;;;;;;5066932;28;20168;-59
2020/12/06 11:52:59;;;;;;;16.77;15.30;;;;;;;;;;5069699;28;20249;-58
2020/12/06 11:55:24;;;;;;;14.90;13.50;;;;;;;;;;5067305;28;20214;-58
2020/12/06 11:57:50;;;;;;;14.83;13.53;;;;;;;;;;5070708;28;20202;-58
2020/12/06 12:00:15;;;;;;;14.93;13.45;;;;;;;;;;5073355;28;20190;-58
2020/12/06 12:02:40;;;;;;;14.23;12.93;;;;;;;;;;5068988;28;20206;-58
2020/12/06 12:05:05;;;;;;;15.70;14.03;;;;;;;;;;5069230;28;20220;-58
2020/12/06 12:07:31;;;;;;;14.57;13.17;;;;;;;;;;5067829;28;20180;-59
2020/12/06 12:09:56;;;;;;;15.37;13.90;;;;;;;;;;5063345;28;20183;-58
2020/12/06 12:12:21;;;;;;;15.17;13.70;;;;;;;;;;5065033;28;20183;-58
2020/12/06 12:14:46;;;;;;;13.70;12.50;;;;;;;;;;5067309;28;20183;-58
2020/12/06 12:17:12;;;;;;;14.75;13.40;;;;;;;;;;5072422;28;20727;-59
2020/12/06 12:19:37;;;;;;;16.20;14.80;;;;;;;;;;5067857;28;20178;-58
2020/12/06 12:22:02;;;;;;;14.47;13.10;;;;;;;;;;5065782;28;20260;-59
2020/12/06 12:24:27;;;;;;;14.90;13.50;;;;;;;;;;5069463;28;20537;-58
2020/12/06 12:26:58;;;;;;;15.00;13.60;;;;;;;;;;5069190;28;20206;-59
2020/12/06 12:29:23;;;;;;;14.80;13.50;;;;;;;;;;5068556;28;20642;-58
2020/12/06 12:31:49;;;;;;;15.13;13.73;;;;;;;;;;5066279;28;20604;-58
2020/12/06 12:34:16;;;;;;;15.40;14.02;;;;;;;;;;5068151;28;20178;-58
2020/12/06 12:36:41;;;;;;;15.20;13.90;;;;;;;;;;5066334;28;20192;-58
2020/12/06 12:39:06;;;;;;;16.83;15.27;;;;;;;;;;5067725;28;20598;-58
2020/12/06 12:41:34;;;;;;;15.85;14.45;;;;;;;;;;5064836;28;20207;-58
2020/12/06 12:43:59;;;;;;;16.30;14.77;;;;;;;;;;5068440;28;20182;-58
2020/12/06 12:46:24;;;;;;;15.67;14.27;;;;;;;;;;5069786;28;20615;-58
2020/12/06 12:48:50;;;;;;;16.85;15.35;;;;;;;;;;5069023;28;20582;-59
2020/12/06 12:51:15;;;;;;;21.20;15.75;;;;;;;;;;5066661;28;20186;-58
2020/12/06 12:53:40;;;;;;;18.63;16.77;;;;;;;;;;5066713;28;20258;-57
2020/12/06 12:56:06;;;;;;;17.08;15.55;;;;;;;;;;5067984;28;20182;-58
2020/12/06 12:58:31;;;;;;;17.83;16.23;;;;;;;;;;5068079;28;20202;-58
2020/12/06 13:01:05;;;;;;;18.38;16.50;;;;;;;;;;5065889;28;20549;-58
2020/12/06 13:03:30;;;;;;;17.70;16.10;;;;;;;;;;5070111;28;20185;-58
2020/12/06 13:05:55;;;;;;;19.87;17.97;;;;;;;;;;5062212;28;20602;-58
2020/12/06 13:08:21;;;;;;;18.13;16.42;;;;;;;;;;5067278;28;20649;-58
2020/12/06 13:10:46;;;;;;;20.13;18.13;;;;;;;;;;5059254;28;20187;-58
2020/12/06 13:13:11;;;;;;;18.65;16.92;;;;;;;;;;5068022;28;20185;-58
2020/12/06 13:15:36;;;;;;;18.37;16.67;;;;;;;;;;5065647;28;20644;-58
2020/12/06 13:18:03;;;;;;;19.47;17.67;;;;;;;;;;5069774;28;20599;-58
2020/12/06 13:20:28;;;;;;;19.27;17.57;;;;;;;;;;5069276;28;20179;-58
2020/12/06 13:22:53;;;;;;;20.63;18.63;;;;;;;;;;5066110;28;21184;-58
2020/12/06 13:25:18;;;;;;;19.17;17.30;;;;;;;;;;5068326;28;20183;-58
2020/12/06 13:27:43;;;;;;;19.25;17.55;;;;;;;;;;5068676;28;20255;-59
2020/12/06 13:30:09;;;;;;;20.45;18.52;;;;;;;;;;5069026;28;20189;-59
2020/12/06 13:32:34;;;;;;;19.50;17.60;;;;;;;;;;5067869;28;20190;-59
2020/12/06 13:34:59;;;;;;;18.85;16.90;;;;;;;;;;5068466;28;20597;-59
2020/12/06 13:37:24;;;;;;;17.42;15.88;;;;;;;;;;5068332;28;20210;-58
2020/12/06 13:39:49;;;;;;;18.08;16.38;;;;;;;;;;5069393;28;20184;-59
2020/12/06 13:42:14;;;;;;;18.07;16.47;;;;;;;;;;5066793;28;20567;-59
2020/12/06 13:44:40;;;;;;;18.67;16.90;;;;;;;;;;5067303;28;20262;-58
2020/12/06 13:47:05;;;;;;;18.57;16.73;;;;;;;;;;5066038;28;20191;-58
2020/12/06 13:49:30;;;;;;;17.80;16.10;;;;;;;;;;5068599;28;20253;-59
2020/12/06 13:51:56;;;;;;;18.80;16.67;;;;;;;;;;5067204;28;20189;-59
2020/12/06 13:54:21;;;;;;;16.17;14.73;;;;;;;;;;5068980;28;20175;-59
2020/12/06 13:56:46;;;;;;;19.00;17.20;;;;;;;;;;5068353;28;20220;-59
2020/12/06 13:59:11;;;;;;;17.40;15.90;;;;;;;;;;5068531;28;20186;-59
2020/12/06 14:01:36;;;;;;;16.27;14.87;;;;;;;;;;5065847;28;20217;-59
2020/12/06 14:04:02;;;;;;;18.08;16.42;;;;;;;;;;5067042;28;20655;-58
2020/12/06 14:06:29;;;;;;;17.27;15.77;;;;;;;;;;5063132;28;20168;-59
2020/12/06 14:08:54;;;;;;;17.43;15.90;;;;;;;;;;5068703;28;20187;-59